createdAt,value
2019-05-19T00:00:33.692Z,10.27
2019-05-19T00:03:02.201Z,10.24
2019-05-19T00:05:30.670Z,9.98
2019-05-19T00:07:59.179Z,10.01
2019-05-19T00:10:27.660Z,10.08
2019-05-19T00:12:56.158Z,10.18
2019-05-19T00:15:24.674Z,10.14
2019-05-19T00:17:53.212Z,10.04
2019-05-19T00:20:21.688Z,10.00
2019-05-19T00:22:50.189Z,9.92
2019-05-19T00:25:18.665Z,9.81
2019-05-19T00:27:47.170Z,9.80
2019-05-19T00:30:15.884Z,9.55
2019-05-19T00:32:44.372Z,9.45
2019-05-19T00:35:12.937Z,9.42
2019-05-19T00:37:41.435Z,9.57
2019-05-19T00:40:10.123Z,9.62
2019-05-19T00:42:38.628Z,9.68
2019-05-19T00:45:08.848Z,9.65
2019-05-19T00:47:37.411Z,9.65
2019-05-19T00:50:07.519Z,9.62
2019-05-19T00:52:36.072Z,9.57
2019-05-19T00:55:05.679Z,9.47
2019-05-19T00:57:34.614Z,9.39
2019-05-19T01:00:03.435Z,9.17
2019-05-19T01:02:31.915Z,9.23
2019-05-19T01:05:00.389Z,9.28
2019-05-19T01:07:28.890Z,9.29
2019-05-19T01:09:57.375Z,9.33
2019-05-19T01:12:25.857Z,9.34
2019-05-19T01:14:54.329Z,9.29
2019-05-19T01:17:22.830Z,9.23
2019-05-19T01:19:56.164Z,9.10
2019-05-19T01:22:21.582Z,9.04
2019-05-19T01:24:50.058Z,9.02
2019-05-19T01:27:18.550Z,8.95
2019-05-19T01:29:47.026Z,8.89
2019-05-19T01:32:15.521Z,8.87
2019-05-19T01:34:43.993Z,8.81
2019-05-19T01:37:12.489Z,8.90
2019-05-19T01:39:40.961Z,8.95
2019-05-19T01:42:09.459Z,9.10
2019-05-19T01:44:37.943Z,9.15
2019-05-19T01:47:06.441Z,8.84
2019-05-19T01:49:34.912Z,8.89
2019-05-19T01:52:03.480Z,8.93
2019-05-19T01:54:31.954Z,8.90
2019-05-19T01:57:00.454Z,8.82
2019-05-19T01:59:28.926Z,8.97
2019-05-19T02:01:57.405Z,8.91
2019-05-19T02:04:25.892Z,8.85
2019-05-19T02:06:54.367Z,8.76
2019-05-19T02:09:22.867Z,8.82
2019-05-19T02:11:51.345Z,8.74
2019-05-19T02:14:19.838Z,8.67
2019-05-19T02:16:48.309Z,8.65
2019-05-19T02:19:16.810Z,8.53
2019-05-19T02:21:45.272Z,8.52
2019-05-19T02:24:13.771Z,8.53
2019-05-19T02:26:42.309Z,8.36
2019-05-19T02:29:10.805Z,8.45
2019-05-19T02:31:39.289Z,8.18
2019-05-19T02:34:07.797Z,8.41
2019-05-19T02:36:36.272Z,8.43
2019-05-19T02:39:06.205Z,8.55
2019-05-19T02:41:36.257Z,8.55
2019-05-19T02:44:06.188Z,8.56
2019-05-19T02:46:35.604Z,8.53
2019-05-19T02:49:04.444Z,8.54
2019-05-19T02:51:34.937Z,8.44
2019-05-19T02:54:05.138Z,8.44
2019-05-19T02:56:34.649Z,8.51
2019-05-19T02:59:03.797Z,8.58
2019-05-19T03:01:33.909Z,8.57
2019-05-19T03:04:02.477Z,8.75
2019-05-19T03:06:30.946Z,8.50
2019-05-19T03:08:59.452Z,8.55
2019-05-19T03:11:27.920Z,8.30
2019-05-19T03:13:56.417Z,8.23
2019-05-19T03:16:24.897Z,8.17
2019-05-19T03:18:53.397Z,8.18
2019-05-19T03:21:21.867Z,8.20
2019-05-19T03:23:50.370Z,8.28
2019-05-19T03:26:18.842Z,8.21
2019-05-19T03:28:47.342Z,8.33
2019-05-19T03:31:23.145Z,8.35
2019-05-19T03:33:53.282Z,8.41
2019-05-19T03:36:21.748Z,8.42
2019-05-19T03:38:50.238Z,8.23
2019-05-19T03:41:18.712Z,8.29
2019-05-19T03:43:47.222Z,8.22
2019-05-19T03:46:15.683Z,8.30
2019-05-19T03:48:44.181Z,8.45
2019-05-19T03:51:29.208Z,8.00
2019-05-19T03:53:42.883Z,8.34
2019-05-19T03:56:11.354Z,8.47
2019-05-19T03:58:39.852Z,8.65
2019-05-19T04:01:08.328Z,8.75
2019-05-19T04:03:36.821Z,8.80
2019-05-19T04:06:05.296Z,8.76
2019-05-19T04:08:33.792Z,8.83
2019-05-19T04:11:02.260Z,8.92
2019-05-19T04:13:30.771Z,8.91
2019-05-19T04:15:59.234Z,8.84
2019-05-19T04:18:27.701Z,8.89
2019-05-19T04:20:56.192Z,9.02
2019-05-19T04:23:24.666Z,9.09
2019-05-19T04:25:53.155Z,9.16
2019-05-19T04:28:21.619Z,9.28
2019-05-19T04:30:50.118Z,9.40
2019-05-19T04:33:18.587Z,9.41
2019-05-19T04:35:47.089Z,9.51
2019-05-19T04:38:15.559Z,9.61
2019-05-19T04:40:44.118Z,9.77
2019-05-19T04:43:12.591Z,9.87
2019-05-19T04:45:41.080Z,9.97
2019-05-19T04:48:09.988Z,10.14
2019-05-19T04:50:38.529Z,10.33
2019-05-19T04:53:07.010Z,10.48
2019-05-19T04:55:35.516Z,10.65
2019-05-19T04:58:04.057Z,10.70
2019-05-19T05:00:32.552Z,10.86
2019-05-19T05:03:01.043Z,11.00
2019-05-19T05:05:29.537Z,11.08
2019-05-19T05:07:58.376Z,11.13
2019-05-19T05:10:26.877Z,11.22
2019-05-19T05:12:55.359Z,11.38
2019-05-19T05:15:23.859Z,11.55
2019-05-19T05:17:52.336Z,11.68
2019-05-19T05:20:20.907Z,11.78
2019-05-19T05:22:49.396Z,11.90
2019-05-19T05:25:18.124Z,12.05
2019-05-19T05:27:46.603Z,12.16
2019-05-19T05:30:15.236Z,12.26
2019-05-19T05:32:43.708Z,12.36
2019-05-19T05:35:12.812Z,12.47
2019-05-19T05:37:41.288Z,12.51
2019-05-19T05:40:10.064Z,12.62
2019-05-19T05:42:38.521Z,12.76
2019-05-19T05:45:10.216Z,12.94
2019-05-19T05:47:38.697Z,13.08
2019-05-19T05:50:07.640Z,13.22
2019-05-19T05:52:38.834Z,13.45
2019-05-19T05:55:07.051Z,13.66
2019-05-19T05:57:35.530Z,13.79
2019-05-19T06:00:06.406Z,13.98
2019-05-19T06:02:34.881Z,14.17
2019-05-19T06:05:03.450Z,14.30
2019-05-19T06:07:31.924Z,14.38
2019-05-19T06:10:00.429Z,14.43
2019-05-19T06:12:28.907Z,14.61
2019-05-19T06:14:57.415Z,14.78
2019-05-19T06:17:25.892Z,14.81
2019-05-19T06:19:54.401Z,14.92
2019-05-19T06:22:22.868Z,15.12
2019-05-19T06:24:51.372Z,15.38
2019-05-19T06:27:19.855Z,15.66
2019-05-19T06:29:48.328Z,15.85
2019-05-19T06:32:33.535Z,16.10
2019-05-19T06:35:02.542Z,16.28
2019-05-19T06:37:31.282Z,16.45
2019-05-19T06:39:59.788Z,16.49
2019-05-19T06:42:28.265Z,16.70
2019-05-19T06:44:56.729Z,16.92
2019-05-19T06:47:25.231Z,17.07
2019-05-19T06:49:53.700Z,17.15
2019-05-19T06:52:22.205Z,17.31
2019-05-19T06:54:50.675Z,17.60
2019-05-19T06:57:19.165Z,17.80
2019-05-19T06:59:47.635Z,17.94
2019-05-19T07:02:16.138Z,18.09
2019-05-19T07:04:44.606Z,18.16
2019-05-19T07:07:13.134Z,18.24
2019-05-19T07:09:55.971Z,18.41
2019-05-19T07:12:11.806Z,18.53
2019-05-19T07:14:40.271Z,18.76
2019-05-19T07:17:08.773Z,18.77
2019-05-19T07:19:37.287Z,18.86
2019-05-19T07:22:05.827Z,18.99
2019-05-19T07:24:34.299Z,19.10
2019-05-19T07:27:02.787Z,19.14
2019-05-19T07:29:31.252Z,19.14
2019-05-19T07:31:59.750Z,19.29
2019-05-19T07:34:28.268Z,19.29
2019-05-19T07:36:56.762Z,19.49
2019-05-19T07:39:25.234Z,19.53
2019-05-19T07:41:53.722Z,19.61
2019-05-19T07:44:22.196Z,19.75
2019-05-19T07:46:50.687Z,19.73
2019-05-19T07:49:19.232Z,19.76
2019-05-19T07:51:47.724Z,19.79
2019-05-19T07:54:16.197Z,19.96
2019-05-19T07:56:44.695Z,19.97
2019-05-19T07:59:13.370Z,19.92
2019-05-19T08:01:41.866Z,20.05
2019-05-19T08:04:10.374Z,20.08
2019-05-19T08:06:38.830Z,20.41
2019-05-19T08:09:07.300Z,20.24
2019-05-19T08:11:35.790Z,20.32
2019-05-19T08:14:04.326Z,20.47
2019-05-19T08:16:32.896Z,20.58
2019-05-19T08:19:01.362Z,20.76
2019-05-19T08:21:29.926Z,20.69
2019-05-19T08:24:00.849Z,20.85
2019-05-19T08:26:28.589Z,20.88
2019-05-19T08:28:57.083Z,20.79
2019-05-19T08:31:26.322Z,20.77
2019-05-19T08:33:54.821Z,20.91
2019-05-19T08:36:23.298Z,20.91
2019-05-19T08:38:51.803Z,21.35
2019-05-19T08:41:20.273Z,21.30
2019-05-19T08:43:48.768Z,21.65
2019-05-19T08:46:17.242Z,21.61
2019-05-19T08:48:45.739Z,21.48
2019-05-19T08:51:14.204Z,21.52
2019-05-19T08:53:42.707Z,21.33
2019-05-19T08:56:11.179Z,21.40
2019-05-19T08:58:39.673Z,21.56
2019-05-19T09:01:08.146Z,21.94
2019-05-19T09:03:36.642Z,22.07
2019-05-19T09:06:05.109Z,21.98
2019-05-19T09:08:33.618Z,22.11
2019-05-19T09:11:02.081Z,22.15
2019-05-19T09:13:30.581Z,21.85
2019-05-19T09:15:59.046Z,22.14
2019-05-19T09:18:27.545Z,21.90
2019-05-19T09:20:56.012Z,22.00
2019-05-19T09:23:24.507Z,22.28
2019-05-19T09:25:52.971Z,22.49
2019-05-19T09:28:21.471Z,22.70
2019-05-19T09:30:50.006Z,22.68
2019-05-19T09:33:18.842Z,22.76
2019-05-19T09:35:47.316Z,22.79
2019-05-19T09:38:15.812Z,22.78
2019-05-19T09:40:44.280Z,22.85
2019-05-19T09:43:12.770Z,23.20
2019-05-19T09:45:41.363Z,22.95
2019-05-19T09:48:09.807Z,23.56
2019-05-19T09:50:38.285Z,23.70
2019-05-19T09:53:06.774Z,25.28
2019-05-19T09:55:35.243Z,26.96
2019-05-19T09:58:03.740Z,27.72
2019-05-19T10:00:32.374Z,28.70
2019-05-19T10:03:00.862Z,28.37
2019-05-19T10:05:29.394Z,27.34
2019-05-19T10:07:57.885Z,28.85
2019-05-19T10:10:31.918Z,29.38
2019-05-19T10:13:00.412Z,30.33
2019-05-19T10:15:29.193Z,31.56
2019-05-19T10:17:59.031Z,31.77
2019-05-19T10:20:28.956Z,32.29
2019-05-19T10:22:58.600Z,32.41
2019-05-19T10:25:28.455Z,32.75
2019-05-19T10:27:58.022Z,32.97
2019-05-19T10:30:27.778Z,33.16
2019-05-19T10:32:58.831Z,31.92
2019-05-19T10:35:28.575Z,31.33
2019-05-19T10:37:58.259Z,31.61
2019-05-19T10:40:26.700Z,32.69
2019-05-19T10:42:55.173Z,34.15
2019-05-19T10:45:23.739Z,32.50
2019-05-19T10:47:52.203Z,30.66
2019-05-19T10:50:20.697Z,31.26
2019-05-19T10:52:49.208Z,32.13
2019-05-19T10:55:18.027Z,32.90
2019-05-19T10:57:46.494Z,33.13
2019-05-19T11:00:15.212Z,32.35
2019-05-19T11:02:43.666Z,33.40
2019-05-19T11:05:12.306Z,33.49
2019-05-19T11:07:40.772Z,32.50
2019-05-19T11:10:09.631Z,32.02
2019-05-19T11:12:38.059Z,30.92
2019-05-19T11:15:08.264Z,31.28
2019-05-19T11:17:36.731Z,33.22
2019-05-19T11:20:06.361Z,34.78
2019-05-19T11:22:34.901Z,35.29
2019-05-19T11:25:03.520Z,34.38
2019-05-19T11:27:31.955Z,35.03
2019-05-19T11:30:00.519Z,34.73
2019-05-19T11:32:28.988Z,37.52
2019-05-19T11:34:57.483Z,38.22
2019-05-19T11:37:25.952Z,35.34
2019-05-19T11:39:54.489Z,34.78
2019-05-19T11:42:22.915Z,34.82
2019-05-19T11:44:51.411Z,34.65
2019-05-19T11:47:19.884Z,33.46
2019-05-19T11:49:48.380Z,34.16
2019-05-19T11:52:16.847Z,31.76
2019-05-19T11:54:45.343Z,29.40
2019-05-19T11:57:13.811Z,27.90
2019-05-19T11:59:42.305Z,26.84
2019-05-19T12:02:10.775Z,26.42
2019-05-19T12:04:39.272Z,26.51
2019-05-19T12:07:07.749Z,27.65
2019-05-19T12:09:36.236Z,30.01
2019-05-19T12:12:04.769Z,33.27
2019-05-19T12:14:33.265Z,34.60
2019-05-19T12:17:01.745Z,33.36
2019-05-19T12:19:30.234Z,32.63
2019-05-19T12:21:58.712Z,35.96
2019-05-19T12:24:27.210Z,38.11
2019-05-19T12:26:55.690Z,37.89
2019-05-19T12:29:24.158Z,38.21
2019-05-19T12:31:52.655Z,37.71
2019-05-19T12:34:21.196Z,39.19
2019-05-19T12:36:49.692Z,38.09
2019-05-19T12:39:21.162Z,36.51
2019-05-19T12:41:49.662Z,36.45
2019-05-19T12:44:18.139Z,36.18
2019-05-19T12:46:46.621Z,32.98
2019-05-19T12:49:16.780Z,31.28
2019-05-19T12:51:45.268Z,30.33
2019-05-19T12:54:13.746Z,31.49
2019-05-19T12:56:42.297Z,31.17
2019-05-19T12:59:10.765Z,31.05
2019-05-19T13:01:39.264Z,33.73
2019-05-19T13:04:07.732Z,36.66
2019-05-19T13:06:36.225Z,36.59
2019-05-19T13:09:05.029Z,36.30
2019-05-19T13:11:33.519Z,36.65
2019-05-19T13:14:02.011Z,37.83
2019-05-19T13:16:30.501Z,40.14
2019-05-19T13:18:58.975Z,40.31
2019-05-19T13:21:28.262Z,39.65
2019-05-19T13:23:56.744Z,38.32
2019-05-19T13:26:25.254Z,38.78
2019-05-19T13:28:53.791Z,37.04
2019-05-19T13:31:22.282Z,35.60
2019-05-19T13:33:50.764Z,33.26
2019-05-19T13:36:19.273Z,31.25
2019-05-19T13:38:47.733Z,30.88
2019-05-19T13:41:16.229Z,30.66
2019-05-19T13:43:44.702Z,29.61
2019-05-19T13:46:13.215Z,30.49
2019-05-19T13:48:41.670Z,34.93
2019-05-19T13:51:10.170Z,35.42
2019-05-19T13:53:38.638Z,37.46
2019-05-19T13:56:07.159Z,34.96
2019-05-19T13:58:35.598Z,36.44
2019-05-19T14:01:04.169Z,35.12
2019-05-19T14:03:32.647Z,33.51
2019-05-19T14:06:01.206Z,32.19
2019-05-19T14:08:29.689Z,31.20
2019-05-19T14:10:58.188Z,30.09
2019-05-19T14:13:26.659Z,29.46
2019-05-19T14:15:55.154Z,29.14
2019-05-19T14:18:23.626Z,29.15
2019-05-19T14:20:52.108Z,31.10
2019-05-19T14:23:20.674Z,34.84
2019-05-19T14:25:49.143Z,36.97
2019-05-19T14:28:17.647Z,38.59
2019-05-19T14:30:46.148Z,37.14
2019-05-19T14:33:14.991Z,34.55
2019-05-19T14:35:43.459Z,31.94
2019-05-19T14:38:11.979Z,29.43
2019-05-19T14:40:40.453Z,28.36
2019-05-19T14:43:08.967Z,27.33
2019-05-19T14:45:37.439Z,26.31
2019-05-19T14:48:06.101Z,25.95
2019-05-19T14:50:34.882Z,25.40
2019-05-19T14:53:03.350Z,24.96
2019-05-19T14:55:31.820Z,24.77
2019-05-19T14:58:00.311Z,24.61
2019-05-19T15:00:28.780Z,24.31
2019-05-19T15:02:57.280Z,24.25
2019-05-19T15:05:25.919Z,24.29
2019-05-19T15:07:54.477Z,24.09
2019-05-19T15:10:23.122Z,24.06
2019-05-19T15:12:51.648Z,24.03
2019-05-19T15:15:20.255Z,23.96
2019-05-19T15:17:48.900Z,23.96
2019-05-19T15:20:17.511Z,24.03
2019-05-19T15:22:46.003Z,24.12
2019-05-19T15:25:15.698Z,24.05
2019-05-19T15:27:57.858Z,24.18
2019-05-19T15:30:14.559Z,24.74
2019-05-19T15:32:43.061Z,25.56
2019-05-19T15:35:11.680Z,26.39
2019-05-19T15:37:40.181Z,28.13
2019-05-19T15:40:09.217Z,30.56
2019-05-19T15:42:37.724Z,32.94
2019-05-19T15:45:06.433Z,34.34
2019-05-19T15:47:35.004Z,32.95
2019-05-19T15:50:05.248Z,31.41
2019-05-19T15:52:33.799Z,30.29
2019-05-19T15:55:02.352Z,29.14
2019-05-19T15:57:30.890Z,29.61
2019-05-19T15:59:59.388Z,32.63
2019-05-19T16:02:27.895Z,35.87
2019-05-19T16:04:56.367Z,36.17
2019-05-19T16:07:24.858Z,34.38
2019-05-19T16:09:53.329Z,33.71
2019-05-19T16:12:21.807Z,31.48
2019-05-19T16:14:50.322Z,29.66
2019-05-19T16:17:18.803Z,28.06
2019-05-19T16:19:47.288Z,26.81
2019-05-19T16:22:15.845Z,25.80
2019-05-19T16:24:44.348Z,25.28
2019-05-19T16:27:13.090Z,24.58
2019-05-19T16:29:41.604Z,24.30
2019-05-19T16:32:10.083Z,23.88
2019-05-19T16:34:38.586Z,23.84
2019-05-19T16:37:07.061Z,23.72
2019-05-19T16:39:35.560Z,23.54
2019-05-19T16:42:04.026Z,23.40
2019-05-19T16:44:32.524Z,23.20
2019-05-19T16:47:01.009Z,23.16
2019-05-19T16:49:29.506Z,23.01
2019-05-19T16:51:58.063Z,22.67
2019-05-19T16:54:30.603Z,22.56
2019-05-19T16:56:59.080Z,22.43
2019-05-19T16:59:27.658Z,22.31
2019-05-19T17:01:56.130Z,22.06
2019-05-19T17:04:24.626Z,21.87
2019-05-19T17:06:53.096Z,21.69
2019-05-19T17:09:21.603Z,21.51
2019-05-19T17:11:50.081Z,21.28
2019-05-19T17:14:18.580Z,21.11
2019-05-19T17:16:47.238Z,20.80
2019-05-19T17:19:15.748Z,20.66
2019-05-19T17:21:44.381Z,20.67
2019-05-19T17:24:12.883Z,20.57
2019-05-19T17:26:41.360Z,20.51
2019-05-19T17:29:10.080Z,20.40
2019-05-19T17:31:38.549Z,20.31
2019-05-19T17:34:07.089Z,20.18
2019-05-19T17:36:35.608Z,20.07
2019-05-19T17:39:05.179Z,19.95
2019-05-19T17:41:33.674Z,19.85
2019-05-19T17:44:02.192Z,19.74
2019-05-19T17:46:30.656Z,19.62
2019-05-19T17:48:59.252Z,19.51
2019-05-19T17:51:27.735Z,19.42
2019-05-19T17:53:56.226Z,19.36
2019-05-19T17:56:24.953Z,19.35
2019-05-19T17:58:54.493Z,19.28
2019-05-19T18:01:22.979Z,19.19
2019-05-19T18:03:51.923Z,19.16
2019-05-19T18:06:20.427Z,19.12
2019-05-19T18:08:48.942Z,19.03
2019-05-19T18:11:17.432Z,18.99
2019-05-19T18:13:46.411Z,19.03
2019-05-19T18:16:14.914Z,18.75
2019-05-19T18:18:43.386Z,18.96
2019-05-19T18:21:11.995Z,18.99
2019-05-19T18:23:40.470Z,19.00
2019-05-19T18:26:08.974Z,19.06
2019-05-19T18:28:37.438Z,19.11
2019-05-19T18:31:05.939Z,19.10
2019-05-19T18:33:34.407Z,19.07
2019-05-19T18:36:02.917Z,19.06
2019-05-19T18:38:31.391Z,18.85
2019-05-19T18:40:59.886Z,18.96
2019-05-19T18:43:28.393Z,18.96
2019-05-19T18:45:56.857Z,18.90
2019-05-19T18:48:25.396Z,18.85
2019-05-19T18:50:53.961Z,18.79
2019-05-19T18:53:22.470Z,18.73
2019-05-19T18:55:50.962Z,18.69
2019-05-19T18:58:19.488Z,18.64
2019-05-19T19:00:47.969Z,18.57
2019-05-19T19:03:16.429Z,18.51
2019-05-19T19:05:44.926Z,18.48
2019-05-19T19:08:13.396Z,18.46
2019-05-19T19:10:41.987Z,18.40
2019-05-19T19:13:10.459Z,18.36
2019-05-19T19:15:38.956Z,18.36
2019-05-19T19:18:07.494Z,18.37
2019-05-19T19:20:35.998Z,18.34
2019-05-19T19:23:04.607Z,18.30
2019-05-19T19:25:33.103Z,18.22
2019-05-19T19:28:01.580Z,18.16
2019-05-19T19:30:30.110Z,18.03
2019-05-19T19:32:58.584Z,17.91
2019-05-19T19:35:36.888Z,17.80
2019-05-19T19:37:57.302Z,17.70
2019-05-19T19:40:30.415Z,17.72
2019-05-19T19:43:00.051Z,17.77
2019-05-19T19:45:28.977Z,17.74
2019-05-19T19:47:57.500Z,17.78
2019-05-19T19:50:25.994Z,17.81
2019-05-19T19:52:54.474Z,17.78
2019-05-19T19:55:23.017Z,17.78
2019-05-19T19:57:51.814Z,17.74
2019-05-19T20:00:43.920Z,17.69
2019-05-19T20:03:12.930Z,17.73
2019-05-19T20:05:41.898Z,17.78
2019-05-19T20:08:10.544Z,17.64
2019-05-19T20:10:39.420Z,17.61
2019-05-19T20:13:08.126Z,17.65
2019-05-19T20:15:37.362Z,17.65
2019-05-19T20:18:05.838Z,17.64
2019-05-19T20:20:34.345Z,17.59
2019-05-19T20:23:02.809Z,17.65
2019-05-19T20:25:31.684Z,17.54
2019-05-19T20:28:00.169Z,17.48
2019-05-19T20:30:35.844Z,17.28
2019-05-19T20:32:58.888Z,17.12
2019-05-19T20:35:27.359Z,17.09
2019-05-19T20:37:55.875Z,17.04
2019-05-19T20:40:24.352Z,17.04
2019-05-19T20:42:52.854Z,16.91
2019-05-19T20:45:21.349Z,16.81
2019-05-19T20:47:49.854Z,16.86
2019-05-19T20:50:18.426Z,16.83
2019-05-19T20:52:46.925Z,16.72
2019-05-19T20:55:15.489Z,16.65
2019-05-19T20:57:43.985Z,16.69
2019-05-19T21:00:12.901Z,16.65
2019-05-19T21:02:41.399Z,16.53
2019-05-19T21:05:09.936Z,16.39
2019-05-19T21:45:46.417Z,15.19
2019-05-19T21:48:14.924Z,15.07
2019-05-19T21:50:43.409Z,14.97
2019-05-19T21:53:11.915Z,14.96
2019-05-19T21:55:40.448Z,15.01
2019-05-19T21:58:08.960Z,15.00
2019-05-19T22:00:37.729Z,14.93
2019-05-19T22:03:06.295Z,14.81
2019-05-19T22:05:34.841Z,14.72
2019-05-19T22:08:04.989Z,14.62
2019-05-19T22:10:33.526Z,14.50
2019-05-19T22:13:02.823Z,14.23
2019-05-19T22:15:31.326Z,14.28
2019-05-19T22:17:59.847Z,14.25
2019-05-19T22:20:28.516Z,14.20
2019-05-19T22:22:57.443Z,14.23
2019-05-19T22:25:26.025Z,14.36
2019-05-19T22:27:54.515Z,14.57
2019-05-19T22:30:23.064Z,14.59
2019-05-19T22:32:51.562Z,14.57
2019-05-19T22:35:20.037Z,14.47
2019-05-19T22:37:48.535Z,14.44
2019-05-19T22:40:17.077Z,14.42
2019-05-19T22:42:45.580Z,14.40
2019-05-19T22:45:14.307Z,14.37
2019-05-19T22:47:42.890Z,14.29
2019-05-19T22:50:11.612Z,14.25
2019-05-19T22:52:40.229Z,14.23
2019-05-19T22:55:09.413Z,14.01
2019-05-19T22:57:37.905Z,13.97
2019-05-19T23:00:09.318Z,13.87
2019-05-19T23:02:37.830Z,13.76
2019-05-19T23:05:07.442Z,13.77
2019-05-19T23:07:36.146Z,13.76
2019-05-19T23:10:07.224Z,13.60
2019-05-19T23:12:35.779Z,13.32
2019-05-19T23:15:06.693Z,13.50
2019-05-19T23:17:35.208Z,13.50
2019-05-19T23:20:04.415Z,13.28
2019-05-19T23:22:32.996Z,13.40
2019-05-19T23:25:01.476Z,13.45
2019-05-19T23:27:29.939Z,13.42
2019-05-19T23:29:58.448Z,13.44
2019-05-19T23:32:26.934Z,13.41
2019-05-19T23:34:55.466Z,13.40
2019-05-19T23:37:23.941Z,13.49
2019-05-19T23:39:54.247Z,13.58
2019-05-19T23:42:22.806Z,13.66
2019-05-19T23:44:51.306Z,13.72
2019-05-19T23:47:19.800Z,13.87
2019-05-19T23:49:48.312Z,14.04
2019-05-19T23:52:16.782Z,14.16
2019-05-19T23:54:45.281Z,14.19
2019-05-19T23:57:13.768Z,14.23
2019-05-19T23:59:42.273Z,14.17
